Terminal Aerodrome Forecast
Issued by NWS

Home | Current Version | Previous Version | Text Only | Print | Product List | Glossary On
Versions: 1 2 3 4 5 6 7 8 9 10 11 12 13 14 15 16 17 18 19 20 21 22 23 24 25 26 27 28 29 30
808
FTUS43 KGLD 262018 AAA
TAFMCK
TAF AMD
KMCK 262018Z 2620/2718 05010KT P6SM FEW040
      TEMPO 2620/2623 VRB20G30KT 4SM TSRA BKN040CB
     FM270000 09010KT P6SM BKN050
     FM270800 13004KT 6SM BR FEW002 BKN050 WS020/14035KT
     FM271400 15010G20KT P6SM SCT050 SCT150=

USA.gov is the U.S. government's official web portal to all federal, state and local government web resources and services.